Nashville, Tennessee
Traffic Map
Current Weather Conditions
Nashville, Tennessee
Overcast
Overcast
60°
Feels Like: 60°
Wind Chill: 60° Ceiling: 3300
Heat Index: 60° Visibility: 10mi
Dew Point: 50° Wind: 8mph
Humidity: 69% Direction: 270° (W)
Pressure: 30.1in Gusts: 0mph
Raw Report DataKBNA 180000Z 27007KT 10SM OVC033 16/10 A3010 RMK AO2 T01560100
Traffic Incident Summary
Active as of:
Severity:
Category:
InformationThere was an issue retrieving the traffic information for this location. Please try a different location or try again shortly.
Advertisements
Track Severe Weather on mobile